sensor_id;sensor_type;location;lat;lon;timestamp;pressure;altitude;pressure_sealevel;temperature;humidity
77879;BME280;67071;51.144;17.050;2023-04-30T00:00:28;100499.96;;;9.56;93.55
77879;BME280;67071;51.144;17.050;2023-04-30T00:03:07;100508.97;;;9.57;93.64
77879;BME280;67071;51.144;17.050;2023-04-30T00:05:35;100508.43;;;9.55;93.64
77879;BME280;67071;51.144;17.050;2023-04-30T00:07:55;100514.80;;;9.53;93.57
77879;BME280;67071;51.144;17.050;2023-04-30T00:12:24;100509.87;;;9.65;93.45
77879;BME280;67071;51.144;17.050;2023-04-30T00:14:43;100505.16;;;9.62;93.58
77879;BME280;67071;51.144;17.050;2023-04-30T00:17:02;100503.60;;;9.60;93.44
77879;BME280;67071;51.144;17.050;2023-04-30T00:19:21;100515.54;;;9.69;93.56
77879;BME280;67071;51.144;17.050;2023-04-30T00:21:41;100511.23;;;9.58;93.48
77879;BME280;67071;51.144;17.050;2023-04-30T00:24:00;100512.80;;;9.53;93.52
77879;BME280;67071;51.144;17.050;2023-04-30T00:26:20;100516.35;;;9.49;93.54
77879;BME280;67071;51.144;17.050;2023-04-30T00:28:39;100511.49;;;9.46;93.50
77879;BME280;67071;51.144;17.050;2023-04-30T00:31:00;100511.92;;;9.45;93.60
77879;BME280;67071;51.144;17.050;2023-04-30T00:33:19;100515.45;;;9.44;93.69
77879;BME280;67071;51.144;17.050;2023-04-30T00:35:38;100517.32;;;9.42;93.77
77879;BME280;67071;51.144;17.050;2023-04-30T00:37:57;100520.01;;;9.41;93.80
77879;BME280;67071;51.144;17.050;2023-04-30T00:40:17;100523.73;;;9.39;93.78
77879;BME280;67071;51.144;17.050;2023-04-30T00:42:37;100526.60;;;9.39;93.82
77879;BME280;67071;51.144;17.050;2023-04-30T00:44:56;100524.34;;;9.39;93.77
77879;BME280;67071;51.144;17.050;2023-04-30T00:47:15;100540.41;;;9.38;93.77
77879;BME280;67071;51.144;17.050;2023-04-30T00:49:37;100541.25;;;9.36;93.80
77879;BME280;67071;51.144;17.050;2023-04-30T00:51:57;100544.56;;;9.34;93.77
77879;BME280;67071;51.144;17.050;2023-04-30T00:54:17;100548.47;;;9.35;93.93
77879;BME280;67071;51.144;17.050;2023-04-30T00:56:38;100545.59;;;9.35;93.98
77879;BME280;67071;51.144;17.050;2023-04-30T00:58:58;100555.30;;;9.33;93.89
77879;BME280;67071;51.144;17.050;2023-04-30T01:01:17;100546.89;;;9.32;93.91
77879;BME280;67071;51.144;17.050;2023-04-30T01:03:39;100560.67;;;9.32;93.90
77879;BME280;67071;51.144;17.050;2023-04-30T01:06:00;100556.16;;;9.30;93.96
77879;BME280;67071;51.144;17.050;2023-04-30T01:08:23;100557.84;;;9.30;94.00
77879;BME280;67071;51.144;17.050;2023-04-30T01:10:51;100556.57;;;9.30;94.12
77879;BME280;67071;51.144;17.050;2023-04-30T01:13:17;100557.60;;;9.30;94.19
77879;BME280;67071;51.144;17.050;2023-04-30T01:15:45;100561.12;;;9.30;94.17
77879;BME280;67071;51.144;17.050;2023-04-30T01:18:15;100562.61;;;9.27;94.05
77879;BME280;67071;51.144;17.050;2023-04-30T01:20:43;100560.61;;;9.26;94.08
77879;BME280;67071;51.144;17.050;2023-04-30T01:23:41;100563.28;;;9.24;94.02
77879;BME280;67071;51.144;17.050;2023-04-30T01:28:52;100563.81;;;9.18;93.95
77879;BME280;67071;51.144;17.050;2023-04-30T01:31:17;100565.72;;;9.14;94.06
77879;BME280;67071;51.144;17.050;2023-04-30T01:33:37;100569.53;;;9.08;93.89
77879;BME280;67071;51.144;17.050;2023-04-30T01:36:06;100565.50;;;9.03;93.94
77879;BME280;67071;51.144;17.050;2023-04-30T01:44:34;100569.01;;;8.91;94.08
77879;BME280;67071;51.144;17.050;2023-04-30T01:47:10;100576.05;;;8.88;94.05
77879;BME280;67071;51.144;17.050;2023-04-30T01:52:22;100570.47;;;8.78;94.13
77879;BME280;67071;51.144;17.050;2023-04-30T01:54:52;100575.53;;;8.71;94.06
77879;BME280;67071;51.144;17.050;2023-04-30T01:57:29;100581.16;;;8.64;94.15
77879;BME280;67071;51.144;17.050;2023-04-30T01:59:50;100573.85;;;8.59;94.29
77879;BME280;67071;51.144;17.050;2023-04-30T02:02:10;100581.91;;;8.56;94.30
77879;BME280;67071;51.144;17.050;2023-04-30T02:04:30;100581.80;;;8.50;94.25
77879;BME280;67071;51.144;17.050;2023-04-30T02:07:01;100589.86;;;8.45;94.17
77879;BME280;67071;51.144;17.050;2023-04-30T02:09:23;100584.60;;;8.41;94.19
77879;BME280;67071;51.144;17.050;2023-04-30T02:11:45;100582.69;;;8.31;94.30
77879;BME280;67071;51.144;17.050;2023-04-30T02:14:05;100594.43;;;8.28;94.35
77879;BME280;67071;51.144;17.050;2023-04-30T02:16:29;100591.59;;;8.24;94.29
77879;BME280;67071;51.144;17.050;2023-04-30T02:18:49;100592.67;;;8.19;94.37
77879;BME280;67071;51.144;17.050;2023-04-30T02:21:14;100594.60;;;8.15;94.44
77879;BME280;67071;51.144;17.050;2023-04-30T02:23:37;100597.31;;;8.09;94.46
77879;BME280;67071;51.144;17.050;2023-04-30T02:25:56;100597.39;;;8.05;94.46
77879;BME280;67071;51.144;17.050;2023-04-30T02:28:26;100600.74;;;7.98;94.52
77879;BME280;67071;51.144;17.050;2023-04-30T02:30:57;100598.90;;;7.98;94.63
77879;BME280;67071;51.144;17.050;2023-04-30T02:34:30;100601.30;;;7.87;94.68
77879;BME280;67071;51.144;17.050;2023-04-30T07:56:24;100906.34;;;13.41;79.46
77879;BME280;67071;51.144;17.050;2023-04-30T07:58:44;100905.95;;;13.58;78.93
77879;BME280;67071;51.144;17.050;2023-04-30T08:01:03;100909.87;;;13.76;78.58
77879;BME280;67071;51.144;17.050;2023-04-30T08:03:23;100914.58;;;14.05;78.15
77879;BME280;67071;51.144;17.050;2023-04-30T08:05:41;100910.63;;;14.10;78.12
77879;BME280;67071;51.144;17.050;2023-04-30T08:08:03;100908.52;;;13.78;78.75
77879;BME280;67071;51.144;17.050;2023-04-30T08:10:23;100911.99;;;13.64;79.00
77879;BME280;67071;51.144;17.050;2023-04-30T08:12:46;100907.12;;;13.67;79.13
77879;BME280;67071;51.144;17.050;2023-04-30T08:15:06;100910.63;;;13.36;79.53
77879;BME280;67071;51.144;17.050;2023-04-30T08:17:28;100915.57;;;13.01;80.06
77879;BME280;67071;51.144;17.050;2023-04-30T08:19:47;100918.55;;;12.78;80.23
77879;BME280;67071;51.144;17.050;2023-04-30T08:22:06;100914.23;;;12.93;80.00
77879;BME280;67071;51.144;17.050;2023-04-30T08:24:26;100912.55;;;13.16;79.44
77879;BME280;67071;51.144;17.050;2023-04-30T08:26:47;100916.87;;;13.09;80.03
77879;BME280;67071;51.144;17.050;2023-04-30T08:29:07;100920.05;;;13.38;78.97
77879;BME280;67071;51.144;17.050;2023-04-30T08:31:26;100919.30;;;13.28;78.31
77879;BME280;67071;51.144;17.050;2023-04-30T08:33:45;100910.18;;;12.97;78.65
77879;BME280;67071;51.144;17.050;2023-04-30T08:36:05;100912.84;;;12.78;79.62
77879;BME280;67071;51.144;17.050;2023-04-30T08:38:24;100912.21;;;12.87;79.06
77879;BME280;67071;51.144;17.050;2023-04-30T08:40:48;100915.89;;;12.76;79.24
77879;BME280;67071;51.144;17.050;2023-04-30T08:43:13;100915.78;;;12.96;77.53
77879;BME280;67071;51.144;17.050;2023-04-30T08:45:33;100911.04;;;12.68;78.49
77879;BME280;67071;51.144;17.050;2023-04-30T08:47:49;100914.02;;;12.79;78.51
77879;BME280;67071;51.144;17.050;2023-04-30T08:50:08;100920.98;;;12.88;78.38
77879;BME280;67071;51.144;17.050;2023-04-30T08:52:25;100925.32;;;13.02;77.83
77879;BME280;67071;51.144;17.050;2023-04-30T08:56:52;100924.77;;;13.56;77.11
77879;BME280;67071;51.144;17.050;2023-04-30T09:01:13;100925.98;;;13.96;76.52
77879;BME280;67071;51.144;17.050;2023-04-30T09:03:30;100927.56;;;14.02;76.03
77879;BME280;67071;51.144;17.050;2023-04-30T09:05:47;100930.04;;;14.06;76.02
77879;BME280;67071;51.144;17.050;2023-04-30T09:10:16;100929.97;;;14.17;75.67
77879;BME280;67071;51.144;17.050;2023-04-30T09:12:36;100934.93;;;14.10;75.89
77879;BME280;67071;51.144;17.050;2023-04-30T09:15:01;100933.59;;;14.03;74.55
77879;BME280;67071;51.144;17.050;2023-04-30T09:17:22;100937.91;;;13.94;74.60
77879;BME280;67071;51.144;17.050;2023-04-30T09:19:41;100941.34;;;13.98;74.27
77879;BME280;67071;51.144;17.050;2023-04-30T09:22:20;100937.05;;;14.07;74.47
77879;BME280;67071;51.144;17.050;2023-04-30T09:24:45;100942.36;;;14.67;73.97
77879;BME280;67071;51.144;17.050;2023-04-30T09:27:15;100948.43;;;14.57;73.91
77879;BME280;67071;51.144;17.050;2023-04-30T09:29:36;100944.27;;;14.97;73.57
77879;BME280;67071;51.144;17.050;2023-04-30T09:32:07;100950.13;;;15.31;72.00
77879;BME280;67071;51.144;17.050;2023-04-30T09:34:33;100947.16;;;15.15;71.91
77879;BME280;67071;51.144;17.050;2023-04-30T09:36:52;100944.18;;;15.29;71.58
77879;BME280;67071;51.144;17.050;2023-04-30T09:39:13;100939.41;;;15.66;71.21
77879;BME280;67071;51.144;17.050;2023-04-30T09:41:32;100944.73;;;16.12;70.31
77879;BME280;67071;51.144;17.050;2023-04-30T09:43:48;100942.59;;;16.19;68.75
77879;BME280;67071;51.144;17.050;2023-04-30T09:46:14;100944.41;;;16.31;68.25
77879;BME280;67071;51.144;17.050;2023-04-30T09:48:31;100945.66;;;16.44;68.35
77879;BME280;67071;51.144;17.050;2023-04-30T09:50:48;100949.79;;;16.92;68.25
77879;BME280;67071;51.144;17.050;2023-04-30T09:53:08;100940.59;;;17.42;66.25
77879;BME280;67071;51.144;17.050;2023-04-30T09:55:24;100943.55;;;17.10;66.94
77879;BME280;67071;51.144;17.050;2023-04-30T09:57:41;100940.92;;;17.48;66.54
77879;BME280;67071;51.144;17.050;2023-04-30T09:59:59;100940.50;;;17.96;65.13
77879;BME280;67071;51.144;17.050;2023-04-30T10:02:18;100936.15;;;17.75;66.50
77879;BME280;67071;51.144;17.050;2023-04-30T10:04:44;100931.04;;;17.19;66.96
77879;BME280;67071;51.144;17.050;2023-04-30T10:07:23;100934.35;;;17.07;66.66
77879;BME280;67071;51.144;17.050;2023-04-30T10:09:49;100934.73;;;18.39;64.89
77879;BME280;67071;51.144;17.050;2023-04-30T10:12:47;100933.15;;;19.03;62.67
77879;BME280;67071;51.144;17.050;2023-04-30T10:17:36;100933.50;;;19.49;61.96
77879;BME280;67071;51.144;17.050;2023-04-30T10:20:02;100927.70;;;19.41;60.75
77879;BME280;67071;51.144;17.050;2023-04-30T10:22:22;100933.37;;;19.60;61.38
77879;BME280;67071;51.144;17.050;2023-04-30T10:24:39;100928.56;;;20.18;61.20
77879;BME280;67071;51.144;17.050;2023-04-30T10:26:57;100932.51;;;20.62;60.35
77879;BME280;67071;51.144;17.050;2023-04-30T10:29:16;100930.49;;;21.08;58.99
77879;BME280;67071;51.144;17.050;2023-04-30T10:31:33;100940.43;;;29.32;41.30
77879;BME280;67071;51.144;17.050;2023-04-30T10:36:27;100959.00;;;39.56;27.42
77879;BME280;67071;51.144;17.050;2023-04-30T10:38:45;100925.80;;;31.62;36.14
77879;BME280;67071;51.144;17.050;2023-04-30T10:41:05;100930.74;;;28.16;45.65
77879;BME280;67071;51.144;17.050;2023-04-30T10:44:07;100931.16;;;27.98;46.88
77879;BME280;67071;51.144;17.050;2023-04-30T10:46:24;100926.35;;;28.54;44.51
77879;BME280;67071;51.144;17.050;2023-04-30T10:48:45;100930.35;;;31.05;37.53
77879;BME280;67071;51.144;17.050;2023-04-30T10:51:01;100926.83;;;32.32;35.19
77879;BME280;67071;51.144;17.050;2023-04-30T10:53:19;100940.96;;;34.20;31.40
77879;BME280;67071;51.144;17.050;2023-04-30T10:58:31;100931.32;;;33.50;32.86
77879;BME280;67071;51.144;17.050;2023-04-30T11:01:04;100934.76;;;36.42;28.87
77879;BME280;67071;51.144;17.050;2023-04-30T11:03:21;100930.96;;;34.40;31.24
77879;BME280;67071;51.144;17.050;2023-04-30T11:05:43;100913.16;;;30.87;37.09
77879;BME280;67071;51.144;17.050;2023-04-30T11:08:00;100919.70;;;28.53;43.30
77879;BME280;67071;51.144;17.050;2023-04-30T11:10:20;100912.70;;;27.21;46.89
77879;BME280;67071;51.144;17.050;2023-04-30T11:12:43;100907.20;;;27.64;46.77
77879;BME280;67071;51.144;17.050;2023-04-30T11:15:11;100911.24;;;28.13;46.50
77879;BME280;67071;51.144;17.050;2023-04-30T11:17:31;100902.55;;;28.48;47.99
77879;BME280;67071;51.144;17.050;2023-04-30T11:19:50;100911.68;;;27.23;48.13
77879;BME280;67071;51.144;17.050;2023-04-30T11:22:20;100904.73;;;26.88;49.80
77879;BME280;67071;51.144;17.050;2023-04-30T11:24:53;100905.88;;;27.13;48.53
77879;BME280;67071;51.144;17.050;2023-04-30T11:27:12;100902.59;;;26.72;46.74
77879;BME280;67071;51.144;17.050;2023-04-30T11:29:33;100906.05;;;26.23;48.14
77879;BME280;67071;51.144;17.050;2023-04-30T11:31:50;100911.87;;;26.18;48.17
77879;BME280;67071;51.144;17.050;2023-04-30T11:34:13;100904.56;;;26.02;49.04
77879;BME280;67071;51.144;17.050;2023-04-30T11:36:33;100892.98;;;26.30;49.36
77879;BME280;67071;51.144;17.050;2023-04-30T11:38:51;100909.28;;;26.19;48.79
77879;BME280;67071;51.144;17.050;2023-04-30T11:41:11;100907.76;;;26.27;47.20
77879;BME280;67071;51.144;17.050;2023-04-30T11:43:32;100912.09;;;26.85;47.56
77879;BME280;67071;51.144;17.050;2023-04-30T11:45:59;100904.63;;;27.61;45.48
77879;BME280;67071;51.144;17.050;2023-04-30T11:48:15;100908.73;;;27.79;43.60
77879;BME280;67071;51.144;17.050;2023-04-30T11:50:33;100911.77;;;28.10;42.99
77879;BME280;67071;51.144;17.050;2023-04-30T11:52:52;100920.25;;;28.77;43.77
77879;BME280;67071;51.144;17.050;2023-04-30T11:55:13;100920.17;;;28.92;41.53
77879;BME280;67071;51.144;17.050;2023-04-30T11:57:40;100916.23;;;29.79;42.18
77879;BME280;67071;51.144;17.050;2023-04-30T12:00:08;100906.91;;;30.45;41.67
77879;BME280;67071;51.144;17.050;2023-04-30T12:02:24;100909.09;;;30.72;42.85
77879;BME280;67071;51.144;17.050;2023-04-30T12:04:42;100913.39;;;31.47;41.52
77879;BME280;67071;51.144;17.050;2023-04-30T12:06:59;100914.62;;;31.73;40.91
77879;BME280;67071;51.144;17.050;2023-04-30T12:09:16;100913.78;;;31.82;40.67
77879;BME280;67071;51.144;17.050;2023-04-30T12:11:34;100917.95;;;32.43;41.12
77879;BME280;67071;51.144;17.050;2023-04-30T12:13:55;100921.36;;;32.61;40.25
77879;BME280;67071;51.144;17.050;2023-04-30T12:16:16;100912.63;;;32.87;39.24
77879;BME280;67071;51.144;17.050;2023-04-30T12:18:32;100918.30;;;32.72;38.98
77879;BME280;67071;51.144;17.050;2023-04-30T12:20:49;100925.09;;;33.55;39.38
77879;BME280;67071;51.144;17.050;2023-04-30T12:23:25;100924.95;;;34.01;38.55
77879;BME280;67071;51.144;17.050;2023-04-30T12:25:42;100913.66;;;33.76;37.20
77879;BME280;67071;51.144;17.050;2023-04-30T12:28:02;100918.48;;;33.75;37.44
77879;BME280;67071;51.144;17.050;2023-04-30T12:30:25;100911.46;;;34.00;38.10
77879;BME280;67071;51.144;17.050;2023-04-30T12:32:43;100911.70;;;34.59;38.64
77879;BME280;67071;51.144;17.050;2023-04-30T12:35:00;100913.99;;;34.53;36.61
77879;BME280;67071;51.144;17.050;2023-04-30T12:37:17;100906.20;;;34.16;37.49
77879;BME280;67071;51.144;17.050;2023-04-30T12:39:35;100902.38;;;34.52;36.44
77879;BME280;67071;51.144;17.050;2023-04-30T12:41:51;100905.26;;;34.76;36.02
77879;BME280;67071;51.144;17.050;2023-04-30T12:44:13;100903.75;;;33.90;35.12
77879;BME280;67071;51.144;17.050;2023-04-30T12:46:29;100911.81;;;34.10;36.59
77879;BME280;67071;51.144;17.050;2023-04-30T12:48:45;100910.48;;;34.92;37.69
77879;BME280;67071;51.144;17.050;2023-04-30T12:51:01;100903.23;;;36.01;38.55
77879;BME280;67071;51.144;17.050;2023-04-30T12:53:21;100910.77;;;36.95;39.09
77879;BME280;67071;51.144;17.050;2023-04-30T12:55:38;100906.49;;;37.74;38.14
77879;BME280;67071;51.144;17.050;2023-04-30T13:00:23;100901.45;;;37.58;35.72
77879;BME280;67071;51.144;17.050;2023-04-30T13:02:41;100891.67;;;36.49;34.85
77879;BME280;67071;51.144;17.050;2023-04-30T13:04:58;100905.55;;;36.07;34.75
77879;BME280;67071;51.144;17.050;2023-04-30T13:07:14;100897.48;;;35.78;34.50
77879;BME280;67071;51.144;17.050;2023-04-30T13:09:39;100894.55;;;36.22;38.60
77879;BME280;67071;51.144;17.050;2023-04-30T13:11:56;100892.06;;;37.02;38.64
77879;BME280;67071;51.144;17.050;2023-04-30T13:14:12;100894.32;;;37.43;38.09
77879;BME280;67071;51.144;17.050;2023-04-30T13:16:31;100893.33;;;37.59;37.62
77879;BME280;67071;51.144;17.050;2023-04-30T13:18:47;100881.48;;;37.50;36.57
77879;BME280;67071;51.144;17.050;2023-04-30T13:21:03;100884.64;;;37.02;36.99
77879;BME280;67071;51.144;17.050;2023-04-30T13:23:19;100884.34;;;36.77;36.18
77879;BME280;67071;51.144;17.050;2023-04-30T13:25:37;100891.70;;;37.38;37.41
77879;BME280;67071;51.144;17.050;2023-04-30T13:27:54;100886.20;;;37.67;38.06
77879;BME280;67071;51.144;17.050;2023-04-30T13:30:11;100892.73;;;38.26;38.76
77879;BME280;67071;51.144;17.050;2023-04-30T13:32:30;100889.80;;;38.73;38.15
77879;BME280;67071;51.144;17.050;2023-04-30T13:34:46;100894.97;;;38.97;37.06
77879;BME280;67071;51.144;17.050;2023-04-30T13:37:02;100882.66;;;38.75;37.15
77879;BME280;67071;51.144;17.050;2023-04-30T13:39:19;100896.55;;;39.19;38.13
77879;BME280;67071;51.144;17.050;2023-04-30T13:41:44;100886.64;;;39.37;37.29
77879;BME280;67071;51.144;17.050;2023-04-30T13:44:00;100887.01;;;39.00;36.68
77879;BME280;67071;51.144;17.050;2023-04-30T13:46:16;100888.27;;;38.84;36.27
77879;BME280;67071;51.144;17.050;2023-04-30T13:48:36;100880.02;;;38.58;36.90
77879;BME280;67071;51.144;17.050;2023-04-30T13:50:57;100882.96;;;38.61;36.24
77879;BME280;67071;51.144;17.050;2023-04-30T13:53:14;100885.12;;;38.73;36.76
77879;BME280;67071;51.144;17.050;2023-04-30T13:55:31;100883.39;;;38.75;36.22
77879;BME280;67071;51.144;17.050;2023-04-30T13:57:50;100889.58;;;38.72;35.56
77879;BME280;67071;51.144;17.050;2023-04-30T14:00:08;100885.04;;;38.54;36.76
77879;BME280;67071;51.144;17.050;2023-04-30T14:02:29;100875.69;;;39.58;38.83
77879;BME280;67071;51.144;17.050;2023-04-30T14:04:46;100869.27;;;39.75;37.82
77879;BME280;67071;51.144;17.050;2023-04-30T14:07:02;100872.92;;;39.86;35.64
77879;BME280;67071;51.144;17.050;2023-04-30T14:09:18;100864.49;;;39.28;36.95
77879;BME280;67071;51.144;17.050;2023-04-30T14:11:36;100866.42;;;39.37;37.84
77879;BME280;67071;51.144;17.050;2023-04-30T14:13:51;100866.63;;;39.05;36.60
77879;BME280;67071;51.144;17.050;2023-04-30T14:16:08;100867.70;;;39.21;37.63
77879;BME280;67071;51.144;17.050;2023-04-30T14:18:24;100869.15;;;39.09;37.26
77879;BME280;67071;51.144;17.050;2023-04-30T14:20:41;100866.98;;;38.65;36.53
77879;BME280;67071;51.144;17.050;2023-04-30T14:22:57;100867.37;;;38.98;38.93
77879;BME280;67071;51.144;17.050;2023-04-30T14:25:13;100859.24;;;39.16;39.59
77879;BME280;67071;51.144;17.050;2023-04-30T14:27:30;100852.86;;;39.54;39.05
77879;BME280;67071;51.144;17.050;2023-04-30T14:29:46;100866.50;;;39.12;36.65
77879;BME280;67071;51.144;17.050;2023-04-30T14:32:05;100855.01;;;38.58;37.85
77879;BME280;67071;51.144;17.050;2023-04-30T14:34:26;100851.77;;;38.68;36.99
77879;BME280;67071;51.144;17.050;2023-04-30T14:36:42;100856.23;;;38.83;36.04
77879;BME280;67071;51.144;17.050;2023-04-30T14:38:58;100847.78;;;38.02;36.22
77879;BME280;67071;51.144;17.050;2023-04-30T14:41:14;100852.74;;;38.08;37.36
77879;BME280;67071;51.144;17.050;2023-04-30T14:43:31;100852.27;;;38.44;38.73
77879;BME280;67071;51.144;17.050;2023-04-30T14:45:47;100854.23;;;38.57;38.91
77879;BME280;67071;51.144;17.050;2023-04-30T14:48:03;100845.61;;;39.22;38.34
77879;BME280;67071;51.144;17.050;2023-04-30T14:50:20;100856.63;;;39.64;35.10
77879;BME280;67071;51.144;17.050;2023-04-30T14:52:36;100858.60;;;39.92;36.67
77879;BME280;67071;51.144;17.050;2023-04-30T14:54:52;100861.23;;;40.52;35.45
77879;BME280;67071;51.144;17.050;2023-04-30T14:57:10;100855.85;;;40.96;36.00
77879;BME280;67071;51.144;17.050;2023-04-30T14:59:42;100848.52;;;40.87;34.67
77879;BME280;67071;51.144;17.050;2023-04-30T15:01:58;100847.17;;;40.63;37.31
77879;BME280;67071;51.144;17.050;2023-04-30T15:04:15;100841.66;;;40.93;38.20
77879;BME280;67071;51.144;17.050;2023-04-30T15:06:31;100840.94;;;41.07;36.95
77879;BME280;67071;51.144;17.050;2023-04-30T15:09:25;100846.41;;;41.42;36.31
77879;BME280;67071;51.144;17.050;2023-04-30T15:11:42;100848.23;;;42.00;35.96
77879;BME280;67071;51.144;17.050;2023-04-30T15:13:58;100841.32;;;41.65;34.95
77879;BME280;67071;51.144;17.050;2023-04-30T15:16:17;100844.43;;;41.80;37.32
77879;BME280;67071;51.144;17.050;2023-04-30T15:18:33;100847.53;;;41.79;37.86
77879;BME280;67071;51.144;17.050;2023-04-30T15:20:51;100847.70;;;41.60;38.69
77879;BME280;67071;51.144;17.050;2023-04-30T15:23:07;100842.20;;;41.66;38.29
77879;BME280;67071;51.144;17.050;2023-04-30T15:26:00;100841.25;;;42.15;39.59
77879;BME280;67071;51.144;17.050;2023-04-30T15:28:18;100847.02;;;42.26;37.79
77879;BME280;67071;51.144;17.050;2023-04-30T15:30:34;100842.81;;;41.39;36.98
77879;BME280;67071;51.144;17.050;2023-04-30T15:32:51;100847.30;;;40.80;38.92
77879;BME280;67071;51.144;17.050;2023-04-30T15:35:08;100847.13;;;40.30;38.72
77879;BME280;67071;51.144;17.050;2023-04-30T15:37:25;100843.25;;;40.38;42.22
77879;BME280;67071;51.144;17.050;2023-04-30T15:39:41;100842.22;;;40.14;43.13
77879;BME280;67071;51.144;17.050;2023-04-30T15:41:57;100837.29;;;39.90;41.57
77879;BME280;67071;51.144;17.050;2023-04-30T15:44:15;100833.27;;;39.88;40.28
77879;BME280;67071;51.144;17.050;2023-04-30T15:46:32;100843.15;;;40.04;40.64
77879;BME280;67071;51.144;17.050;2023-04-30T15:48:53;100836.34;;;39.77;41.10
77879;BME280;67071;51.144;17.050;2023-04-30T15:51:29;100833.55;;;39.49;43.77
77879;BME280;67071;51.144;17.050;2023-04-30T15:53:45;100834.58;;;39.29;45.57
77879;BME280;67071;51.144;17.050;2023-04-30T15:56:03;100832.80;;;39.37;46.12
77879;BME280;67071;51.144;17.050;2023-04-30T15:58:19;100831.96;;;39.45;47.93
77879;BME280;67071;51.144;17.050;2023-04-30T16:00:35;100831.73;;;39.75;47.27
77879;BME280;67071;51.144;17.050;2023-04-30T16:05:12;100839.12;;;39.72;47.92
77879;BME280;67071;51.144;17.050;2023-04-30T16:07:39;100837.62;;;39.81;48.39
77879;BME280;67071;51.144;17.050;2023-04-30T16:09:55;100826.05;;;39.26;49.64
77879;BME280;67071;51.144;17.050;2023-04-30T16:12:12;100833.30;;;38.66;50.09
77879;BME280;67071;51.144;17.050;2023-04-30T16:14:33;100832.46;;;38.89;52.47
77879;BME280;67071;51.144;17.050;2023-04-30T16:16:49;100821.97;;;39.03;51.56
77879;BME280;67071;51.144;17.050;2023-04-30T16:19:14;100834.41;;;38.94;50.21
77879;BME280;67071;51.144;17.050;2023-04-30T16:21:33;100834.20;;;38.67;47.70
77879;BME280;67071;51.144;17.050;2023-04-30T16:23:51;100836.17;;;38.10;48.48
77879;BME280;67071;51.144;17.050;2023-04-30T16:26:14;100832.58;;;37.62;51.67
77879;BME280;67071;51.144;17.050;2023-04-30T16:28:30;100829.78;;;37.32;51.75
77879;BME280;67071;51.144;17.050;2023-04-30T16:30:48;100825.31;;;36.46;53.07
77879;BME280;67071;51.144;17.050;2023-04-30T16:33:07;100821.00;;;35.93;54.39
77879;BME280;67071;51.144;17.050;2023-04-30T16:35:28;100816.28;;;35.74;54.40
77879;BME280;67071;51.144;17.050;2023-04-30T16:37:52;100818.67;;;36.11;54.99
77879;BME280;67071;51.144;17.050;2023-04-30T16:40:09;100815.30;;;36.35;54.23
77879;BME280;67071;51.144;17.050;2023-04-30T16:42:26;100816.87;;;35.94;53.72
77879;BME280;67071;51.144;17.050;2023-04-30T16:44:42;100820.70;;;35.59;54.67
77879;BME280;67071;51.144;17.050;2023-04-30T16:47:01;100817.64;;;35.21;54.61
77879;BME280;67071;51.144;17.050;2023-04-30T16:49:37;100820.55;;;34.55;56.63
77879;BME280;67071;51.144;17.050;2023-04-30T16:51:54;100814.24;;;33.84;55.33
77879;BME280;67071;51.144;17.050;2023-04-30T16:54:13;100813.92;;;33.63;57.99
77879;BME280;67071;51.144;17.050;2023-04-30T16:56:29;100816.55;;;33.54;57.56
77879;BME280;67071;51.144;17.050;2023-04-30T16:58:45;100815.66;;;33.28;58.10
77879;BME280;67071;51.144;17.050;2023-04-30T17:01:01;100817.84;;;32.93;58.55
77879;BME280;67071;51.144;17.050;2023-04-30T17:03:17;100812.17;;;32.38;59.81
77879;BME280;67071;51.144;17.050;2023-04-30T17:05:33;100813.88;;;31.89;59.77
77879;BME280;67071;51.144;17.050;2023-04-30T17:07:49;100810.97;;;31.31;61.33
77879;BME280;67071;51.144;17.050;2023-04-30T17:10:06;100819.10;;;30.72;61.79
77879;BME280;67071;51.144;17.050;2023-04-30T17:12:23;100825.77;;;30.29;62.98
77879;BME280;67071;51.144;17.050;2023-04-30T17:14:39;100825.69;;;29.87;63.36
77879;BME280;67071;51.144;17.050;2023-04-30T17:16:58;100826.09;;;29.64;65.81
77879;BME280;67071;51.144;17.050;2023-04-30T17:19:14;100829.70;;;29.20;65.98
77879;BME280;67071;51.144;17.050;2023-04-30T17:21:32;100826.56;;;28.64;66.86
77879;BME280;67071;51.144;17.050;2023-04-30T17:23:52;100833.27;;;28.21;68.66
77879;BME280;67071;51.144;17.050;2023-04-30T17:26:11;100832.20;;;27.67;68.46
77879;BME280;67071;51.144;17.050;2023-04-30T17:28:27;100826.55;;;27.18;69.15
77879;BME280;67071;51.144;17.050;2023-04-30T17:30:44;100823.40;;;26.78;69.93
77879;BME280;67071;51.144;17.050;2023-04-30T17:33:00;100829.51;;;26.17;71.19
77879;BME280;67071;51.144;17.050;2023-04-30T17:35:16;100829.99;;;25.52;72.80
77879;BME280;67071;51.144;17.050;2023-04-30T17:37:34;100834.86;;;24.93;72.78
77879;BME280;67071;51.144;17.050;2023-04-30T17:39:52;100835.36;;;24.52;74.77
77879;BME280;67071;51.144;17.050;2023-04-30T17:42:07;100832.57;;;23.97;75.93
77879;BME280;67071;51.144;17.050;2023-04-30T17:44:23;100829.78;;;23.41;77.12
77879;BME280;67071;51.144;17.050;2023-04-30T17:46:40;100831.62;;;22.46;78.12
77879;BME280;67071;51.144;17.050;2023-04-30T17:49:02;100834.61;;;21.62;79.90
77879;BME280;67071;51.144;17.050;2023-04-30T17:51:18;100832.10;;;20.66;81.56
77879;BME280;67071;51.144;17.050;2023-04-30T17:53:35;100830.53;;;19.75;82.92
77879;BME280;67071;51.144;17.050;2023-04-30T17:55:51;100830.52;;;18.98;83.98
77879;BME280;67071;51.144;17.050;2023-04-30T17:58:10;100821.96;;;18.34;85.04
77879;BME280;67071;51.144;17.050;2023-04-30T18:00:26;100824.89;;;17.83;85.84